Check out our new BloomSky Weather System.

Active alerts


No alerts


Thunder radar  blitzortung!


Rain radar more information rain snow radar


Visit our other weather sites:

Template documentation
and downloads

And another site



Weather Underground History page Text

Daily Summary for December 1, 2017 Units:  Metric    English   Both
« Previous Day
Next Day »
Daily Weekly Monthly Yearly Custom
  High: Low: Average:
Temperature: 24.1 °C 8.1 °C 15.2 °C
Dew Point: 13.8 °C 7.3 °C 10.9 °C
Humidity: 97 % 48 % 78 %
Wind Speed: 9.7 km/h 0 km/h 0.6 km/h
Wind Gust: 12.9 km/h - -
Wind:- - SSE
Pressure: 1023.2 hPa 1018.2 hPa -
Precipitation: 0 mm    
Historical Graphs
 
 
Tabular Data for December 1, 2017
Time Temperature Dew Point Pressure Wind Wind Speed Wind Gust Humidity Rainfall Rate (Hourly)
00:01 10.3 °C 8.4 °C 1021.9 hPa Calm   1.6 km/h 88 % 0 mm
00:06 10.3 °C 8.4 °C 1021.9 hPa Calm   1.6 km/h 88 % 0 mm
00:10 10.1 °C 8 °C 1021.6 hPa Calm     87 % 0 mm
00:15 9.8 °C 7.7 °C 1021.6 hPa Calm     87 % 0 mm
00:20 9.6 °C 7.7 °C 1021.6 hPa Calm     88 % 0 mm
00:30 9.8 °C 8.1 °C 1021.6 hPa Calm     89 % 0 mm
00:35 9.8 °C 8.1 °C 1021.6 hPa Calm     89 % 0 mm
00:40 9.6 °C 7.9 °C 1021.6 hPa Calm     89 % 0 mm
00:46 9.4 °C 7.7 °C 1021.6 hPa Calm     89 % 0 mm
00:51 9.3 °C 7.6 °C 1021.6 hPa Calm     89 % 0 mm
00:56 9.4 °C 7.8 °C 1021.6 hPa Calm     90 % 0 mm
01:01 9.6 °C 8.2 °C 1021.6 hPa Calm     91 % 0 mm
01:06 9.6 °C 8 °C 1021.6 hPa Calm     90 % 0 mm
01:11 9.6 °C 8 °C 1021.6 hPa Calm     90 % 0 mm
01:16 9.6 °C 8 °C 1021.6 hPa Calm     90 % 0 mm
01:26 9.3 °C 7.7 °C 1021.6 hPa Calm     90 % 0 mm
01:36 9.1 °C 7.7 °C 1021.6 hPa Calm     91 % 0 mm
01:41 9.1 °C 7.7 °C 1021.6 hPa Calm     91 % 0 mm
01:46 9.1 °C 7.7 °C 1021.6 hPa Calm     91 % 0 mm
01:51 9.2 °C 8 °C 1021.6 hPa Calm     92 % 0 mm
01:56 9.2 °C 8 °C 1021.2 hPa Calm     92 % 0 mm
02:01 9.3 °C 8.1 °C 1021.2 hPa Calm     92 % 0 mm
02:04 9.3 °C 8.1 °C 1021.2 hPa Calm     92 % 0 mm
02:09 9.3 °C 8.1 °C 1021.2 hPa Calm     92 % 0 mm
02:25 9.1 °C 7.9 °C 1021.2 hPa Calm     92 % 0 mm
02:30 9.1 °C 7.9 °C 1021.2 hPa Calm     92 % 0 mm
02:35 8.9 °C 7.7 °C 1021.2 hPa Calm     92 % 0 mm
02:40 8.8 °C 7.6 °C 1021.2 hPa Calm     92 % 0 mm
02:50 9 °C 7.9 °C 1021.2 hPa Calm     93 % 0 mm
02:55 9.2 °C 8.1 °C 1021.2 hPa Calm     93 % 0 mm
03:00 9.3 °C 8.2 °C 1021.2 hPa Calm     93 % 0 mm
03:05 9.3 °C 8.2 °C 1021.2 hPa Calm     93 % 0 mm
03:10 9.3 °C 8.2 °C 1021.2 hPa Calm     93 % 0 mm
03:15 9.3 °C 8.2 °C 1021.2 hPa Calm     93 % 0 mm
03:20 9.5 °C 8.4 °C 1021.6 hPa Calm     93 % 0 mm
03:25 9.6 °C 8.5 °C 1021.6 hPa Calm     93 % 0 mm
03:30 9.7 °C 8.6 °C 1021.6 hPa Calm     93 % 0 mm
03:35 9.8 °C 8.7 °C 1021.6 hPa Calm   1.6 km/h 93 % 0 mm
03:40 9.9 °C 8.8 °C 1021.6 hPa Calm   1.6 km/h 93 % 0 mm
03:45 9.9 °C 8.7 °C 1021.6 hPa Calm   1.6 km/h 92 % 0 mm
03:55 9.7 °C 8.5 °C 1021.6 hPa Calm     92 % 0 mm
04:00 9.7 °C 8.5 °C 1021.2 hPa Calm     92 % 0 mm
04:10 9.8 °C 8.7 °C 1021.2 hPa Calm   1.6 km/h 93 % 0 mm
04:15 9.8 °C 8.7 °C 1021.2 hPa Calm   1.6 km/h 93 % 0 mm
04:20 9.8 °C 8.7 °C 1021.2 hPa Calm   1.6 km/h 93 % 0 mm
04:25 9.8 °C 8.7 °C 1021.2 hPa Calm   1.6 km/h 93 % 0 mm
04:35 9.6 °C 8.4 °C 1021.2 hPa Calm   1.6 km/h 92 % 0 mm
04:40 9.4 °C 8.3 °C 1021.2 hPa Calm   1.6 km/h 93 % 0 mm
04:45 9.3 °C 8.2 °C 1021.2 hPa Calm   1.6 km/h 93 % 0 mm
04:50 9.2 °C 8.1 °C 1021.2 hPa Calm   1.6 km/h 93 % 0 mm
05:00 9.2 °C 8.3 °C 1021.2 hPa Calm   1.6 km/h 94 % 0 mm
05:05 9.2 °C 8.3 °C 1021.2 hPa Calm   1.6 km/h 94 % 0 mm
05:10 9.1 °C 8 °C 1021.2 hPa Calm   1.6 km/h 93 % 0 mm
05:11 9 °C 7.9 °C 1021.2 hPa Calm   1.6 km/h 93 % 0 mm
05:18 8.8 °C 7.7 °C 1021.2 hPa Calm     93 % 0 mm
05:23 8.6 °C 7.5 °C 1021.2 hPa Calm     93 % 0 mm
05:28 8.6 °C 7.7 °C 1021.6 hPa Calm     94 % 0 mm
05:33 8.5 °C 7.6 °C 1021.6 hPa Calm     94 % 0 mm
05:38 8.4 °C 7.5 °C 1021.6 hPa Calm     94 % 0 mm
05:43 8.4 °C 7.6 °C 1021.6 hPa Calm     95 % 0 mm
05:48 8.6 °C 7.8 °C 1021.6 hPa Calm   1.6 km/h 95 % 0 mm
05:58 8.6 °C 7.8 °C 1021.6 hPa Calm   1.6 km/h 95 % 0 mm
06:03 8.4 °C 7.6 °C 1021.6 hPa Calm     95 % 0 mm
06:08 8.4 °C 7.6 °C 1021.9 hPa Calm     95 % 0 mm
06:13 8.3 °C 7.5 °C 1021.9 hPa Calm     95 % 0 mm
06:18 8.3 °C 7.5 °C 1021.9 hPa Calm     95 % 0 mm
06:23 8.3 °C 7.5 °C 1021.9 hPa Calm     95 % 0 mm
06:28 8.2 °C 7.4 °C 1021.9 hPa Calm     95 % 0 mm
06:33 8.2 °C 7.6 °C 1021.9 hPa Calm     96 % 0 mm
06:38 8.1 °C 7.3 °C 1021.9 hPa Calm     95 % 0 mm
06:43 8.2 °C 7.6 °C 1021.9 hPa Calm     96 % 0 mm
06:48 8.4 °C 7.8 °C 1022.2 hPa Calm     96 % 0 mm
06:53 8.6 °C 8 °C 1022.2 hPa Calm     96 % 0 mm
06:58 8.6 °C 8 °C 1022.2 hPa Calm   1.6 km/h 96 % 0 mm
07:08 8.8 °C 8.3 °C 1022.2 hPa Calm   1.6 km/h 97 % 0 mm
07:13 9 °C 8.5 °C 1022.2 hPa Calm   1.6 km/h 97 % 0 mm
07:18 9.1 °C 8.5 °C 1022.2 hPa Calm   1.6 km/h 96 % 0 mm
07:23 9.2 °C 8.6 °C 1022.2 hPa Calm   1.6 km/h 96 % 0 mm
07:28 9.3 °C 8.7 °C 1022.2 hPa Calm   1.6 km/h 96 % 0 mm
07:33 9.4 °C 8.9 °C 1022.2 hPa Calm   1.6 km/h 97 % 0 mm
07:38 9.7 °C 9.2 °C 1022.6 hPa Calm   1.6 km/h 97 % 0 mm
07:43 10 °C 9.5 °C 1022.6 hPa Calm   1.6 km/h 97 % 0 mm
07:48 10.3 °C 9.7 °C 1022.6 hPa Calm   1.6 km/h 96 % 0 mm
07:58 11.2 °C 10.6 °C 1022.6 hPa Calm   1.6 km/h 96 % 0 mm
08:13 12.1 °C 11.2 °C 1022.9 hPa Calm   1.6 km/h 94 % 0 mm
08:19 12.5 °C 11.6 °C 1022.9 hPa Calm   1.6 km/h 94 % 0 mm
08:24 12.8 °C 11.7 °C 1022.9 hPa Calm   1.6 km/h 93 % 0 mm
08:34 14.1 °C 12.5 °C 1022.9 hPa Calm   1.6 km/h 90 % 0 mm
08:39 14.7 °C 12.6 °C 1023.2 hPa Calm   1.6 km/h 87 % 0 mm
08:44 15.2 °C 12.7 °C 1023.2 hPa East 1.6 km/h 1.6 km/h 85 % 0 mm
08:49 15.5 °C 12.6 °C 1023.2 hPa Calm   1.6 km/h 83 % 0 mm
08:54 16 °C 12.7 °C 1023.2 hPa Calm   3.2 km/h 81 % 0 mm
08:56 16.1 °C 12.5 °C 1023.2 hPa Calm   3.2 km/h 79 % 0 mm
09:06 16.2 °C 12.4 °C 1023.2 hPa SE 3.2 km/h 4.8 km/h 78 % 0 mm
09:11 16.4 °C 12.6 °C 1023.2 hPa NE 1.6 km/h 4.8 km/h 78 % 0 mm
09:16 16.7 °C 12.6 °C 1023.2 hPa ENE 1.6 km/h 4.8 km/h 77 % 0 mm
09:26 17.5 °C 13 °C 1023.2 hPa East 1.6 km/h 4.8 km/h 75 % 0 mm
09:31 17.7 °C 12.8 °C 1023.2 hPa ENE 1.6 km/h 4.8 km/h 73 % 0 mm
09:36 17.8 °C 12.9 °C 1023.2 hPa Calm   3.2 km/h 73 % 0 mm
09:41 17.9 °C 12.8 °C 1023.2 hPa Calm   3.2 km/h 72 % 0 mm
09:46 17.9 °C 13 °C 1023.2 hPa Calm   3.2 km/h 73 % 0 mm
09:49 17.9 °C 13 °C 1023.2 hPa ENE 1.6 km/h 3.2 km/h 73 % 0 mm
09:54 18.4 °C 13 °C 1023.2 hPa Calm   3.2 km/h 71 % 0 mm
09:59 18.6 °C 13.2 °C 1023.2 hPa Calm   3.2 km/h 71 % 0 mm
10:04 18.9 °C 13.3 °C 1023.2 hPa NE 1.6 km/h 3.2 km/h 70 % 0 mm
10:09 19.2 °C 13.6 °C 1022.9 hPa East 1.6 km/h 3.2 km/h 70 % 0 mm
10:14 19.6 °C 13.8 °C 1022.9 hPa SSE 3.2 km/h 3.2 km/h 69 % 0 mm
10:15 19.6 °C 13.5 °C 1022.9 hPa SE 3.2 km/h 3.2 km/h 68 % 0 mm
10:21 19.7 °C 13.4 °C 1022.9 hPa SW 3.2 km/h 4.8 km/h 67 % 0 mm
10:32 20.2 °C 13.4 °C 1022.9 hPa Calm   6.4 km/h 65 % 0 mm
10:37 20.3 °C 13.5 °C 1022.6 hPa Calm   6.4 km/h 65 % 0 mm
10:42 20.5 °C 13.5 °C 1022.6 hPa North 1.6 km/h 4.8 km/h 64 % 0 mm
10:47 20.8 °C 13.5 °C 1022.6 hPa Calm   4.8 km/h 63 % 0 mm
10:52 21 °C 13.7 °C 1022.6 hPa ESE 1.6 km/h 4.8 km/h 63 % 0 mm
10:57 20.9 °C 13.3 °C 1022.2 hPa SE 3.2 km/h 9.7 km/h 62 % 0 mm
11:07 21.1 °C 13.3 °C 1022.2 hPa NNW 1.6 km/h 9.7 km/h 61 % 0 mm
11:12 21.3 °C 13.7 °C 1022.2 hPa SW 1.6 km/h 6.4 km/h 62 % 0 mm
11:17 21.6 °C 13.5 °C 1022.2 hPa ESE 4.8 km/h 6.4 km/h 60 % 0 mm
11:22 21.4 °C 13.3 °C 1022.2 hPa SSW 3.2 km/h 6.4 km/h 60 % 0 mm
11:27 21.6 °C 13.5 °C 1022.2 hPa Calm   6.4 km/h 60 % 0 mm
11:32 21.7 °C 12.8 °C 1021.9 hPa Calm   6.4 km/h 57 % 0 mm
11:37 21.8 °C 13.4 °C 1021.9 hPa ENE 3.2 km/h 6.4 km/h 59 % 0 mm
11:42 22 °C 13.1 °C 1021.9 hPa Calm   4.8 km/h 57 % 0 mm
11:47 22.2 °C 13.5 °C 1021.6 hPa ENE 1.6 km/h 4.8 km/h 58 % 0 mm
12:02 21.8 °C 13.2 °C 1021.6 hPa NNE 1.6 km/h 4.8 km/h 58 % 0 mm
12:07 22.2 °C 13.3 °C 1021.6 hPa Calm   3.2 km/h 57 % 0 mm
12:17 22.5 °C 13.8 °C 1021.2 hPa Calm   4.8 km/h 58 % 0 mm
12:22 22.7 °C 13.2 °C 1021.2 hPa WNW 1.6 km/h 4.8 km/h 55 % 0 mm
12:27 22.4 °C 13.2 °C 1020.9 hPa North 3.2 km/h 9.7 km/h 56 % 0 mm
12:37 22.2 °C 13 °C 1020.5 hPa ENE 1.6 km/h 9.7 km/h 56 % 0 mm
12:47 22.1 °C 12.4 °C 1020.5 hPa NE 3.2 km/h 8 km/h 54 % 0 mm
12:57 22.4 °C 13.2 °C 1020.2 hPa NNE 1.6 km/h 9.7 km/h 56 % 0 mm
13:02 22.4 °C 12.1 °C 1020.2 hPa NNW 6.4 km/h 9.7 km/h 52 % 0 mm
13:07 22.2 °C 11.9 °C 1020.2 hPa WSW 4.8 km/h 11.3 km/h 52 % 0 mm
13:20 23 °C 13.2 °C 1019.9 hPa North 1.6 km/h 6.4 km/h 54 % 0 mm
13:31 22.5 °C 12.2 °C 1019.5 hPa WSW 3.2 km/h 9.7 km/h 52 % 0 mm
13:36 22.4 °C 12.6 °C 1019.5 hPa North 4.8 km/h 9.7 km/h 54 % 0 mm
13:41 22.6 °C 12.8 °C 1019.2 hPa North 3.2 km/h 11.3 km/h 54 % 0 mm
13:46 22.7 °C 12.6 °C 1019.2 hPa NNW 3.2 km/h 11.3 km/h 53 % 0 mm
13:51 22.8 °C 12.7 °C 1019.2 hPa NE 1.6 km/h 11.3 km/h 53 % 0 mm
13:56 23.2 °C 12.5 °C 1018.8 hPa NNW 1.6 km/h 9.7 km/h 51 % 0 mm
14:16 23.4 °C 12.7 °C 1018.8 hPa Calm   12.9 km/h 51 % 0 mm
14:21 23.4 °C 12.4 °C 1018.8 hPa NNW 3.2 km/h 12.9 km/h 50 % 0 mm
14:26 23.2 °C 12.5 °C 1018.8 hPa Calm   12.9 km/h 51 % 0 mm
14:36 23.7 °C 12.7 °C 1018.5 hPa NNW 3.2 km/h 9.7 km/h 50 % 0 mm
14:41 23.6 °C 12.6 °C 1018.5 hPa NW 6.4 km/h 9.7 km/h 50 % 0 mm
14:46 23.3 °C 12.6 °C 1018.5 hPa NW 3.2 km/h 9.7 km/h 51 % 0 mm
14:51 23.3 °C 12.9 °C 1018.5 hPa North 9.7 km/h 9.7 km/h 52 % 0 mm
14:56 23.3 °C 12.9 °C 1018.5 hPa NNW 4.8 km/h 9.7 km/h 52 % 0 mm
15:01 23.4 °C 12.7 °C 1018.5 hPa North 3.2 km/h 9.7 km/h 51 % 0 mm
15:06 23.3 °C 12.6 °C 1018.5 hPa North 1.6 km/h 9.7 km/h 51 % 0 mm
15:11 23.6 °C 12.6 °C 1018.5 hPa NNE 8 km/h 9.7 km/h 50 % 0 mm
15:21 23.9 °C 12.5 °C 1018.5 hPa NNE 1.6 km/h 9.7 km/h 49 % 0 mm
15:26 23.9 °C 12.5 °C 1018.2 hPa East 1.6 km/h 9.7 km/h 49 % 0 mm
15:31 23.9 °C 12.2 °C 1018.2 hPa Calm   6.4 km/h 48 % 0 mm
15:36 23.9 °C 12.5 °C 1018.2 hPa Calm   6.4 km/h 49 % 0 mm
15:41 24 °C 12.6 °C 1018.2 hPa East 3.2 km/h 6.4 km/h 49 % 0 mm
15:46 24 °C 12.3 °C 1018.2 hPa Calm   4.8 km/h 48 % 0 mm
15:47 24.1 °C 12.4 °C 1018.2 hPa SW 3.2 km/h 4.8 km/h 48 % 0 mm
15:57 24.1 °C 12.7 °C 1018.2 hPa Calm   6.4 km/h 49 % 0 mm
16:02 23.9 °C 12.5 °C 1018.2 hPa SE 1.6 km/h 6.4 km/h 49 % 0 mm
16:08 23.8 °C 12.8 °C 1018.2 hPa Calm   6.4 km/h 50 % 0 mm
16:23 23.3 °C 12.6 °C 1018.5 hPa Calm   4.8 km/h 51 % 0 mm
16:28 23.2 °C 12.5 °C 1018.5 hPa ESE 1.6 km/h 4.8 km/h 51 % 0 mm
16:38 22.9 °C 12.5 °C 1018.5 hPa SSE 3.2 km/h 4.8 km/h 52 % 0 mm
16:43 22.9 °C 12.8 °C 1018.5 hPa Calm   3.2 km/h 53 % 0 mm
16:48 22.8 °C 12.7 °C 1018.5 hPa SSE 3.2 km/h 3.2 km/h 53 % 0 mm
16:53 22.6 °C 12.8 °C 1018.5 hPa Calm   3.2 km/h 54 % 0 mm
16:58 22.4 °C 12.6 °C 1018.5 hPa Calm   3.2 km/h 54 % 0 mm
17:03 22.3 °C 12.8 °C 1018.5 hPa Calm   6.4 km/h 55 % 0 mm
17:08 22.1 °C 12.9 °C 1018.5 hPa SE 1.6 km/h 6.4 km/h 56 % 0 mm
17:13 21.8 °C 12.9 °C 1018.5 hPa Calm   6.4 km/h 57 % 0 mm
17:28 21.4 °C 13.1 °C 1018.5 hPa Calm   1.6 km/h 59 % 0 mm
17:33 21.1 °C 12.8 °C 1018.8 hPa Calm   1.6 km/h 59 % 0 mm
17:45 20.5 °C 12.7 °C 1018.8 hPa Calm   1.6 km/h 61 % 0 mm
17:50 20.2 °C 12.7 °C 1018.8 hPa Calm   1.6 km/h 62 % 0 mm
17:55 19.9 °C 12.6 °C 1018.8 hPa Calm   1.6 km/h 63 % 0 mm
18:00 19.7 °C 12.7 °C 1018.8 hPa Calm   1.6 km/h 64 % 0 mm
18:10 19.1 °C 12.8 °C 1018.8 hPa Calm   1.6 km/h 67 % 0 mm
18:15 18.7 °C 12.4 °C 1019.2 hPa Calm     67 % 0 mm
18:30 17.8 °C 12 °C 1019.2 hPa Calm     69 % 0 mm
18:40 17.1 °C 12 °C 1019.2 hPa Calm     72 % 0 mm
18:50 16.6 °C 12.1 °C 1019.5 hPa Calm     75 % 0 mm
18:55 16.4 °C 12.2 °C 1019.5 hPa Calm     76 % 0 mm
19:00 16.2 °C 12 °C 1019.5 hPa Calm     76 % 0 mm
19:05 16.2 °C 12.4 °C 1019.5 hPa Calm     78 % 0 mm
19:15 16.5 °C 12.7 °C 1019.5 hPa Calm     78 % 0 mm
19:20 16.6 °C 12.7 °C 1019.5 hPa ESE 1.6 km/h 1.6 km/h 78 % 0 mm
19:30 16.3 °C 12.5 °C 1019.9 hPa Calm   1.6 km/h 78 % 0 mm
19:35 16.3 °C 12.7 °C 1019.9 hPa Calm   1.6 km/h 79 % 0 mm
19:50 16 °C 12.6 °C 1019.9 hPa Calm   1.6 km/h 80 % 0 mm
19:56 15.9 °C 12.5 °C 1019.9 hPa Calm   1.6 km/h 80 % 0 mm
20:01 15.7 °C 12.4 °C 1019.9 hPa Calm   1.6 km/h 81 % 0 mm
20:06 15.5 °C 12.3 °C 1019.9 hPa Calm     81 % 0 mm
20:11 15.3 °C 12.2 °C 1019.9 hPa Calm     82 % 0 mm
20:16 15 °C 12 °C 1019.9 hPa Calm     82 % 0 mm
20:21 14.8 °C 11.8 °C 1019.9 hPa Calm     82 % 0 mm
20:26 14.6 °C 11.7 °C 1019.9 hPa Calm     83 % 0 mm
20:36 14.6 °C 12.1 °C 1019.9 hPa Calm   3.2 km/h 85 % 0 mm
20:46 14.6 °C 12.1 °C 1019.9 hPa Calm     85 % 0 mm
20:56 14.9 °C 12.4 °C 1020.2 hPa Calm   1.6 km/h 85 % 0 mm
21:01 14.9 °C 12.2 °C 1020.2 hPa Calm   1.6 km/h 84 % 0 mm
21:08 14.8 °C 11.9 °C 1020.2 hPa Calm     83 % 0 mm
21:13 14.5 °C 11.8 °C 1020.2 hPa Calm     84 % 0 mm
21:19 14.2 °C 11.7 °C 1020.2 hPa Calm     85 % 0 mm
21:23 14.1 °C 11.6 °C 1020.2 hPa Calm     85 % 0 mm
21:24 14.1 °C 11.6 °C 1020.2 hPa Calm     85 % 0 mm
21:30 14 °C 11.7 °C 1020.2 hPa Calm     86 % 0 mm
21:35 14 °C 11.7 °C 1019.9 hPa Calm     86 % 0 mm
21:45 14 °C 11.7 °C 1019.9 hPa Calm     86 % 0 mm
21:50 13.8 °C 11.5 °C 1020.2 hPa Calm     86 % 0 mm
22:00 13.8 °C 11.7 °C 1020.2 hPa Calm   1.6 km/h 87 % 0 mm
22:05 13.8 °C 11.7 °C 1020.2 hPa Calm   1.6 km/h 87 % 0 mm
22:10 13.8 °C 11.7 °C 1020.2 hPa Calm     87 % 0 mm
22:15 13.6 °C 11.5 °C 1020.2 hPa Calm     87 % 0 mm
22:20 13.4 °C 11.3 °C 1020.2 hPa Calm     87 % 0 mm
22:25 13.3 °C 11.4 °C 1020.2 hPa Calm     88 % 0 mm
22:40 12.9 °C 11.1 °C 1020.2 hPa Calm     89 % 0 mm
22:45 12.8 °C 11 °C 1020.2 hPa Calm     89 % 0 mm
22:50 12.7 °C 10.9 °C 1020.2 hPa Calm     89 % 0 mm
22:55 12.7 °C 11.1 °C 1020.2 hPa Calm     90 % 0 mm
23:00 12.7 °C 11.1 °C 1020.2 hPa Calm     90 % 0 mm
23:05 12.7 °C 11.1 °C 1020.2 hPa Calm     90 % 0 mm
23:10 12.6 °C 11 °C 1020.2 hPa Calm     90 % 0 mm
23:20 12.4 °C 10.8 °C 1020.2 hPa Calm     90 % 0 mm
23:25 12.4 °C 11 °C 1020.2 hPa Calm     91 % 0 mm
23:31 12.2 °C 10.8 °C 1020.2 hPa Calm     91 % 0 mm
23:36 12.1 °C 10.7 °C 1020.2 hPa Calm     91 % 0 mm
23:41 11.9 °C 10.5 °C 1020.2 hPa Calm     91 % 0 mm
23:46 11.8 °C 10.5 °C 1020.2 hPa Calm     92 % 0 mm
23:51 11.7 °C 10.4 °C 1019.9 hPa Calm     92 % 0 mm
Spring, Texas: Villages of Bridgestone
Compliments of Weather Underground - 2.75 mb

Script developed by  Jim McMurry - jmcmurry@mwt.net Adapted for the template by  Wim van der Kuil - Leuven-Template.eu

You find our weather info also at:

UK Metoffice

WeatherCloud

Weather Underground

Mid-South Weather Network

AWEKAS

Citizen Weather Observer Program (CWOP)

HAMweather, WeatherForYou, PWS Weather

Equipment we use:

Weather-station
Davis Vantage Vue

Weather-program
Meteohub

Weather-server
Debian 7.9 x86 (Guest)

Provider
DreamHost

Davis Vantage Vue

Meteohub

Debian 7.9 x86 (Guest)

DreamHost